createdAt,value
2022-09-07T00:09:00.495Z,1.90
2022-09-07T00:17:57.482Z,1.60
2022-09-07T00:20:25.844Z,1.95
2022-09-07T00:22:57.024Z,1.90
2022-09-07T00:25:25.464Z,1.60
2022-09-07T00:30:59.259Z,1.88
2022-09-07T00:44:51.913Z,2.22
2022-09-07T00:46:57.586Z,2.17
2022-09-07T00:49:54.092Z,2.17
2022-09-07T00:52:58.620Z,1.98
2022-09-07T00:58:26.193Z,2.13
2022-09-07T01:01:02.797Z,2.17
2022-09-07T01:04:04.477Z,1.73
2022-09-07T01:06:59.579Z,2.50
2022-09-07T01:09:34.629Z,2.38
2022-09-07T01:12:05.532Z,2.30
2022-09-07T01:14:57.944Z,2.60
2022-09-07T01:18:02.663Z,1.88
2022-09-07T01:21:02.390Z,2.13
2022-09-07T01:24:07.717Z,1.95
2022-09-07T01:27:07.488Z,2.63
2022-09-07T01:30:12.191Z,2.33
2022-09-07T01:32:54.627Z,2.00
2022-09-07T01:35:54.528Z,2.33
2022-09-07T01:39:02.759Z,2.05
2022-09-07T01:43:00.213Z,2.13
2022-09-07T01:45:53.743Z,2.13
2022-09-07T01:48:27.585Z,2.10
2022-09-07T01:51:03.902Z,1.90
2022-09-07T01:54:54.380Z,1.90
2022-09-07T01:58:03.670Z,2.25
2022-09-07T02:04:53.620Z,2.03
2022-09-07T02:08:06.095Z,2.05
2022-09-07T02:10:39.877Z,2.00
2022-09-07T02:13:27.933Z,2.20
2022-09-07T02:16:09.295Z,2.17
2022-09-07T02:18:53.771Z,2.10
2022-09-07T02:21:32.803Z,2.05
2022-09-07T02:24:41.828Z,1.90
2022-09-07T02:27:22.240Z,2.17
2022-09-07T02:32:22.554Z,2.30
2022-09-07T02:34:51.778Z,2.03
2022-09-07T02:37:21.993Z,2.17
2022-09-07T02:39:50.631Z,2.25
2022-09-07T02:42:19.100Z,1.90
2022-09-07T02:44:52.120Z,2.60
2022-09-07T02:47:38.278Z,2.20
2022-09-07T02:50:37.502Z,2.10
2022-09-07T02:53:29.409Z,2.17
2022-09-07T02:56:27.562Z,2.38
2022-09-07T02:59:01.753Z,2.38
2022-09-07T03:01:54.311Z,2.17
2022-09-07T03:04:29.771Z,2.28
2022-09-07T03:07:19.665Z,2.60
2022-09-07T03:09:55.157Z,2.75
2022-09-07T03:12:26.609Z,2.35
2022-09-07T03:14:54.867Z,2.67
2022-09-07T03:17:23.421Z,1.88
2022-09-07T03:19:54.599Z,2.50
2022-09-07T03:22:22.973Z,2.67
2022-09-07T03:24:51.831Z,2.47
2022-09-07T03:27:20.326Z,2.15
2022-09-07T03:29:50.725Z,2.42
2022-09-07T03:34:49.678Z,2.25
2022-09-07T03:37:18.498Z,2.00
2022-09-07T03:39:47.434Z,2.40
2022-09-07T03:42:16.626Z,2.58
2022-09-07T03:44:45.480Z,2.10
2022-09-07T03:47:14.490Z,2.30
2022-09-07T03:50:02.340Z,2.22
2022-09-07T03:52:31.731Z,2.60
2022-09-07T03:55:00.367Z,2.55
2022-09-07T03:57:28.588Z,2.40
2022-09-07T03:59:57.200Z,2.67
2022-09-07T04:02:25.530Z,2.33
2022-09-07T04:04:53.771Z,2.40
2022-09-07T04:07:22.209Z,2.42
2022-09-07T04:09:52.411Z,2.55
2022-09-07T04:12:20.918Z,2.80
2022-09-07T04:14:50.105Z,2.53
2022-09-07T04:17:21.606Z,2.60
2022-09-07T04:19:50.496Z,2.83
2022-09-07T04:22:21.250Z,2.78
2022-09-07T04:24:50.062Z,2.40
2022-09-07T04:27:19.197Z,2.83
2022-09-07T04:29:49.385Z,2.45
2022-09-07T04:32:19.488Z,2.30
2022-09-07T04:34:48.729Z,2.00
2022-09-07T04:37:17.359Z,2.60
2022-09-07T04:39:46.191Z,2.20
2022-09-07T04:42:23.861Z,2.40
2022-09-07T04:44:52.251Z,2.50
2022-09-07T04:47:21.262Z,2.35
2022-09-07T04:49:53.435Z,2.17
2022-09-07T04:52:22.814Z,2.67
2022-09-07T04:54:52.318Z,2.65
2022-09-07T04:57:25.528Z,2.67
2022-09-07T04:59:53.865Z,2.47
2022-09-07T05:02:22.386Z,2.30
2022-09-07T05:04:53.671Z,2.55
2022-09-07T05:07:22.083Z,1.98
2022-09-07T05:09:50.841Z,2.30
2022-09-07T05:12:19.462Z,2.40
2022-09-07T05:14:48.110Z,3.05
2022-09-07T05:17:17.130Z,2.38
2022-09-07T05:19:46.866Z,2.55
2022-09-07T05:22:15.525Z,2.50
2022-09-07T05:24:44.601Z,2.78
2022-09-07T05:27:13.393Z,2.80
2022-09-07T05:32:30.317Z,2.42
2022-09-07T05:34:58.695Z,2.88
2022-09-07T05:37:26.978Z,2.38
2022-09-07T05:39:58.085Z,2.47
2022-09-07T05:42:26.690Z,2.78
2022-09-07T05:44:54.934Z,2.30
2022-09-07T05:47:23.269Z,2.28
2022-09-07T05:49:57.128Z,2.50
2022-09-07T05:52:26.882Z,2.17
2022-09-07T05:55:07.448Z,2.40
2022-09-07T05:57:42.043Z,2.50
2022-09-07T06:00:11.515Z,2.35
2022-09-07T06:02:40.118Z,2.58
2022-09-07T06:05:10.427Z,2.33
2022-09-07T06:07:39.280Z,2.80
2022-09-07T06:13:00.272Z,2.60
2022-09-07T06:15:28.833Z,2.50
2022-09-07T06:17:57.128Z,3.10
2022-09-07T06:20:25.379Z,2.53
2022-09-07T06:22:53.646Z,2.70
2022-09-07T06:25:22.004Z,2.88
2022-09-07T06:27:51.154Z,2.70
2022-09-07T06:30:19.954Z,2.65
2022-09-07T06:32:49.125Z,2.63
2022-09-07T06:35:17.820Z,2.80
2022-09-07T06:37:46.415Z,2.55
2022-09-07T06:40:15.142Z,2.53
2022-09-07T06:42:44.069Z,3.60
2022-09-07T06:45:12.718Z,3.30
2022-09-07T06:47:42.155Z,3.25
2022-09-07T06:50:11.460Z,3.63
2022-09-07T06:55:30.002Z,3.73
2022-09-07T06:57:58.230Z,3.58
2022-09-07T07:00:26.445Z,3.88
2022-09-07T07:02:54.719Z,3.78
2022-09-07T07:05:23.013Z,4.07
2022-09-07T07:07:51.429Z,3.42
2022-09-07T07:10:24.493Z,3.40
2022-09-07T07:12:58.348Z,3.95
2022-09-07T07:15:29.527Z,3.50
2022-09-07T07:18:09.592Z,3.40
2022-09-07T07:20:47.430Z,3.65
2022-09-07T07:23:16.158Z,3.70
2022-09-07T07:25:44.968Z,4.10
2022-09-07T07:31:10.585Z,3.80
2022-09-07T07:33:41.738Z,3.65
2022-09-07T07:36:14.910Z,4.35
2022-09-07T07:39:00.976Z,3.90
2022-09-07T07:46:52.619Z,5.18
2022-09-07T07:49:21.454Z,5.72
2022-09-07T07:54:39.790Z,5.22
2022-09-07T07:57:08.436Z,6.23
2022-09-07T07:59:37.411Z,5.70
2022-09-07T08:02:06.944Z,5.85
2022-09-07T08:04:36.074Z,5.75
2022-09-07T08:07:10.109Z,6.15
2022-09-07T08:09:44.180Z,5.85
2022-09-07T08:12:15.230Z,5.68
2022-09-07T08:14:44.213Z,5.03
2022-09-07T08:17:17.371Z,5.72
2022-09-07T08:19:46.431Z,5.70
2022-09-07T08:22:15.011Z,5.70
2022-09-07T08:24:43.499Z,4.82
2022-09-07T08:27:12.393Z,5.68
2022-09-07T08:29:40.875Z,4.63
2022-09-07T08:32:09.121Z,5.32
2022-09-07T08:34:38.434Z,4.72
2022-09-07T08:37:06.855Z,5.07
2022-09-07T08:39:35.203Z,5.15
2022-09-07T08:42:22.686Z,5.60
2022-09-07T08:45:15.864Z,5.45
2022-09-07T08:47:49.644Z,5.10
2022-09-07T08:50:20.789Z,5.20
2022-09-07T08:53:10.113Z,6.55
2022-09-07T08:55:50.762Z,5.40
2022-09-07T08:58:48.838Z,6.57
2022-09-07T09:01:38.809Z,6.50
2022-09-07T09:04:31.542Z,7.15
2022-09-07T09:07:21.121Z,7.05
2022-09-07T09:10:07.953Z,6.32
2022-09-07T09:13:03.641Z,7.47
2022-09-07T09:15:41.870Z,6.50
2022-09-07T09:18:46.078Z,7.47
2022-09-07T09:21:17.862Z,6.63
2022-09-07T09:23:49.911Z,6.43
2022-09-07T09:26:34.246Z,7.68
2022-09-07T09:29:22.184Z,6.40
2022-09-07T09:31:50.948Z,7.05
2022-09-07T09:34:25.496Z,7.35
2022-09-07T09:36:57.809Z,7.10
2022-09-07T09:39:26.034Z,6.68
2022-09-07T09:41:57.315Z,7.00
2022-09-07T09:44:31.614Z,7.63
2022-09-07T09:50:00.479Z,6.22
2022-09-07T09:52:41.771Z,6.10
2022-09-07T09:55:35.815Z,6.15
2022-09-07T10:04:36.377Z,6.70
2022-09-07T10:07:28.664Z,6.68
2022-09-07T10:09:58.220Z,6.65
2022-09-07T10:12:34.804Z,5.85
2022-09-07T10:15:06.209Z,7.47
2022-09-07T10:17:43.922Z,6.75
2022-09-07T10:20:18.075Z,7.00
2022-09-07T10:23:07.851Z,6.53
2022-09-07T10:25:40.795Z,7.47
2022-09-07T10:28:15.174Z,7.40
2022-09-07T10:31:34.166Z,7.43
2022-09-07T10:34:26.987Z,7.63
2022-09-07T10:37:09.764Z,8.10
2022-09-07T10:40:21.945Z,6.43
2022-09-07T10:43:22.518Z,7.00
2022-09-07T10:45:59.053Z,7.47
2022-09-07T10:49:01.497Z,7.03
2022-09-07T10:52:01.073Z,6.82
2022-09-07T10:54:39.184Z,6.90
2022-09-07T10:57:25.569Z,7.20
2022-09-07T11:00:08.927Z,6.88
2022-09-07T11:03:28.415Z,7.00
2022-09-07T11:06:26.662Z,6.72
2022-09-07T11:09:29.985Z,7.35
2022-09-07T11:12:33.552Z,7.40
2022-09-07T11:15:14.093Z,6.97
2022-09-07T11:18:00.840Z,7.38
2022-09-07T11:20:57.453Z,6.95
2022-09-07T11:23:32.515Z,7.70
2022-09-07T11:26:15.726Z,7.20
2022-09-07T11:32:13.665Z,7.55
2022-09-07T11:34:48.029Z,7.88
2022-09-07T11:37:27.011Z,6.07
2022-09-07T11:40:05.079Z,7.13
2022-09-07T11:42:43.584Z,6.82
2022-09-07T11:45:31.828Z,6.47
2022-09-07T11:48:08.989Z,5.63
2022-09-07T11:50:42.672Z,5.32
2022-09-07T11:53:28.378Z,6.00
2022-09-07T11:56:16.417Z,6.72
2022-09-07T11:58:56.806Z,5.88
2022-09-07T12:01:32.513Z,5.93
2022-09-07T12:04:25.707Z,6.68
2022-09-07T12:07:05.772Z,7.18
2022-09-07T12:09:59.112Z,6.38
2022-09-07T12:12:53.293Z,6.05
2022-09-07T12:15:47.399Z,6.30
2022-09-07T12:18:45.851Z,5.97
2022-09-07T12:21:38.311Z,6.07
2022-09-07T12:24:09.745Z,6.13
2022-09-07T12:26:37.951Z,6.38
2022-09-07T12:29:23.240Z,6.15
2022-09-07T12:42:42.566Z,6.10
2022-09-07T12:45:43.765Z,5.65
2022-09-07T12:48:47.619Z,6.38
2022-09-07T12:58:48.121Z,5.57
2022-09-07T13:01:45.600Z,5.60
2022-09-07T13:09:08.268Z,5.75
2022-09-07T13:11:46.125Z,5.50
2022-09-07T13:14:30.166Z,5.75
2022-09-07T13:17:42.989Z,5.28
2022-09-07T13:20:40.635Z,5.05
2022-09-07T13:27:48.321Z,7.07
2022-09-07T13:30:42.392Z,6.00
2022-09-07T13:33:36.581Z,6.88
2022-09-07T13:36:07.330Z,8.15
2022-09-07T13:38:37.551Z,6.75
2022-09-07T13:41:13.831Z,8.00
2022-09-07T13:43:47.147Z,7.55
2022-09-07T13:46:43.298Z,7.22
2022-09-07T13:49:22.955Z,7.15
2022-09-07T13:52:26.737Z,6.22
2022-09-07T13:55:07.215Z,6.65
2022-09-07T13:57:50.900Z,5.88
2022-09-07T14:00:20.475Z,5.88
2022-09-07T14:02:56.824Z,6.00
2022-09-07T14:05:26.013Z,5.78
2022-09-07T14:07:54.342Z,6.25
2022-09-07T14:10:25.989Z,5.78
2022-09-07T14:13:14.922Z,5.88
2022-09-07T14:15:46.964Z,6.40
2022-09-07T14:18:19.952Z,6.03
2022-09-07T14:34:07.518Z,6.63
2022-09-07T15:19:31.477Z,6.22
2022-09-07T15:22:15.387Z,6.10
2022-09-07T15:24:46.003Z,6.72
2022-09-07T15:27:36.179Z,6.07
2022-09-07T15:30:07.729Z,6.85
2022-09-07T15:32:36.510Z,6.50
2022-09-07T15:41:23.703Z,6.60
2022-09-07T15:44:03.904Z,6.53
2022-09-07T15:46:37.150Z,6.63
2022-09-07T15:49:05.733Z,6.57
2022-09-07T15:54:29.627Z,8.27
2022-09-07T16:27:38.645Z,7.38
2022-09-07T17:10:34.243Z,6.60
2022-09-07T17:46:19.492Z,6.82
2022-09-07T17:49:47.689Z,6.85
2022-09-07T17:52:45.773Z,7.32
2022-09-07T18:02:39.929Z,6.70
2022-09-07T18:06:32.305Z,6.97
2022-09-07T18:08:39.977Z,7.32
2022-09-07T18:15:31.399Z,6.75
2022-09-07T22:22:36.274Z,6.57
2022-09-07T22:46:26.295Z,11.80
2022-09-07T22:48:59.491Z,8.35
2022-09-07T22:51:30.188Z,8.27
2022-09-07T22:53:59.045Z,8.75
2022-09-07T22:56:32.084Z,9.43
2022-09-07T23:59:03.143Z,9.32
